Hoyt Lakes, Minnesota
Current Conditions -  °F | °C
As of 11:11 PM on Friday 28 Nov 2014 (Local Time) from KEVM Reporting Station
Overcast Overcast  
Wind Chill:   Ceiling: 1400
Heat Index: 18°   Visibility: 10mi
Dew Point: 14°   Wind: 7mph
Humidity: 86%   Direction: 150°SSE
Pressure: 29.69"   Gusts: NA
Location:  47.52°N, 92.14°W
Report Text: KEVM 290511Z AUTO 15006KT 10SM BKN014 OVC022 M08/M10 A2969 RMK AO2
Loading
Personal Weather Stations






























Interactive Weather Map New forecast layout! Learn more

10-Day Weather Forecast

Advertisements
Track Severe Weather on mobile